Time;durP1;ratioP1;P1;durP2;ratioP2;P2;SDS_P1;SDS_P2;PMS_P1;PMS_P2;Temp;Humidity;BMP_temperature;BMP_pressure;BME280_temperature;BME280_humidity;BME280_pressure;Samples;Min_cycle;Max_cycle;Signal;HPM_P1;HPM_P2
2021/04/21 12:59:17;;;;;;;4.95;3.35;;;28.30;40.90;;;;;;5060834;28;20333;-75
2021/04/21 13:01:43;;;;;;;5.00;3.42;;;27.70;40.90;;;;;;5010762;28;20044;-75
2021/04/21 13:04:14;;;;;;;4.43;3.50;;;27.50;39.60;;;;;;5027300;28;20485;-76
2021/04/21 13:06:41;;;;;;;6.93;3.80;;;27.10;40.50;;;;;;5031027;27;20029;-75
2021/04/21 13:09:08;;;;;;;5.50;3.17;;;26.20;41.00;;;;;;5047830;28;20029;-75
2021/04/21 13:11:35;;;;;;;5.60;3.05;;;25.00;40.10;;;;;;5044139;28;20056;-76
2021/04/21 13:14:01;;;;;;;4.93;3.67;;;25.70;41.60;;;;;;5045115;28;20444;-76
2021/04/21 13:16:34;;;;;;;5.88;3.47;;;26.90;41.70;;;;;;5050004;27;20064;-76
2021/04/21 13:19:27;;;;;;;6.57;3.67;;;27.60;40.10;;;;;;5149767;27;20019;-75
2021/04/21 13:22:13;;;;;;;4.82;3.92;;;27.10;40.50;;;;;;5070201;27;20029;-75
2021/04/21 13:24:44;;;;;;;5.20;3.03;;;26.20;40.40;;;;;;5025332;28;20032;-75
2021/04/21 13:27:19;;;;;;;7.60;3.38;;;26.30;40.70;;;;;;5030158;27;20044;-72
2021/04/21 13:30:16;;;;;;;5.38;3.45;;;26.10;40.80;;;;;;5024412;28;20108;-75
2021/04/21 13:32:50;;;;;;;4.30;3.03;;;26.50;39.00;;;;;;5024634;28;20488;-75
2021/04/21 13:35:18;;;;;;;4.25;3.00;;;26.80;39.20;;;;;;5026477;28;20033;-75
2021/04/21 13:37:44;;;;;;;3.60;2.63;;;28.30;38.30;;;;;;5033675;28;20048;-75
2021/04/21 13:40:15;;;;;;;4.80;3.10;;;29.40;37.50;;;;;;5098158;27;20022;-75
2021/04/21 13:42:43;;;;;;;3.50;2.95;;;30.60;36.70;;;;;;5041375;28;20047;-76
2021/04/21 13:45:11;;;;;;;3.72;2.60;;;31.60;36.10;;;;;;5043558;28;20021;-76
2021/04/21 13:47:38;;;;;;;6.40;3.03;;;32.30;35.60;;;;;;5043438;28;20554;-76
2021/04/21 13:50:05;;;;;;;4.32;3.47;;;32.50;36.00;;;;;;5043111;28;20637;-76
2021/04/21 13:52:30;;;;;;;5.60;3.97;;;32.30;36.20;;;;;;5041532;28;20540;-76
2021/04/21 13:54:56;;;;;;;5.85;4.18;;;31.60;35.40;;;;;;5098640;28;20067;-75
2021/04/21 13:57:22;;;;;;;8.32;4.10;;;31.00;36.30;;;;;;5043488;28;20063;-75
2021/04/21 13:59:47;;;;;;;30.55;6.55;;;31.90;37.50;;;;;;5110276;27;20026;-76
2021/04/21 14:02:14;;;;;;;8.45;4.35;;;29.80;37.10;;;;;;5106848;28;20075;-76
2021/04/21 14:04:41;;;;;;;7.25;4.43;;;29.30;37.70;;;;;;5100935;28;20041;-75
2021/04/21 14:07:06;;;;;;;12.43;5.88;;;28.20;37.60;;;;;;5043754;28;20022;-76
2021/04/21 14:09:33;;;;;;;11.45;4.80;;;26.70;39.30;;;;;;5035324;28;20024;-75
2021/04/21 14:11:59;;;;;;;8.68;5.75;;;26.00;40.40;;;;;;5029711;28;20029;-75
2021/04/21 14:14:25;;;;;;;10.55;5.88;;;25.70;40.50;;;;;;5080971;28;20105;-75
2021/04/21 14:16:51;;;;;;;7.45;5.13;;;25.60;40.60;;;;;;5048806;28;20089;-75
2021/04/21 14:19:17;;;;;;;7.05;5.38;;;25.80;40.20;;;;;;5032937;28;20545;-75
2021/04/21 14:21:43;;;;;;;6.72;5.07;;;25.80;41.00;;;;;;5050517;28;20104;-75
2021/04/21 14:24:09;;;;;;;11.05;6.00;;;25.50;41.20;;;;;;5041665;28;20108;-75
2021/04/21 14:26:34;;;;;;;8.15;5.75;;;25.50;42.50;;;;;;5030921;28;20104;-75
2021/04/21 14:29:00;;;;;;;8.00;6.63;;;24.80;42.30;;;;;;5030642;28;20101;-75
2021/04/21 14:31:26;;;;;;;13.38;6.75;;;24.30;43.70;;;;;;5013698;28;20041;-75
2021/04/21 14:33:51;;;;;;;9.48;6.75;;;23.60;44.60;;;;;;5030592;28;20034;-75
2021/04/21 14:36:17;;;;;;;7.85;5.85;;;23.30;44.50;;;;;;5032535;28;20073;-75
2021/04/21 14:38:45;;;;;;;8.60;6.15;;;23.40;45.00;;;;;;5029808;28;20036;-75
2021/04/21 14:41:11;;;;;;;8.50;6.03;;;23.50;45.20;;;;;;5080763;28;20029;-75
2021/04/21 14:43:37;;;;;;;8.23;6.22;;;23.40;45.00;;;;;;5030053;28;20413;-75
2021/04/21 14:46:03;;;;;;;6.60;4.82;;;23.20;45.50;;;;;;5029844;28;20104;-75
2021/04/21 14:48:29;;;;;;;7.57;5.43;;;23.20;45.40;;;;;;5029964;28;20038;-75
2021/04/21 14:50:54;;;;;;;6.45;4.63;;;22.90;46.20;;;;;;5028877;28;20030;-75
2021/04/21 14:53:20;;;;;;;10.57;6.38;;;22.70;46.20;;;;;;5029400;28;20116;-75
2021/04/21 14:55:47;;;;;;;8.85;6.15;;;23.30;46.90;;;;;;5095376;28;20040;-75
2021/04/21 14:58:13;;;;;;;10.43;6.40;;;24.40;45.10;;;;;;5044983;28;20482;-75
2021/04/21 15:00:38;;;;;;;9.20;5.90;;;24.90;43.70;;;;;;5024488;28;20030;-76
2021/04/21 15:03:04;;;;;;;10.07;5.85;;;25.50;43.40;;;;;;5069163;28;20037;-75
2021/04/21 15:05:30;;;;;;;9.02;5.50;;;26.50;42.40;;;;;;5038968;28;20033;-76
2021/04/21 15:07:56;;;;;;;6.53;5.20;;;27.80;40.60;;;;;;5029343;28;20071;-76
2021/04/21 15:10:23;;;;;;;6.28;4.85;;;28.60;40.50;;;;;;5024767;28;20037;-76
2021/04/21 15:12:53;;;;;;;8.40;4.68;;;28.90;39.20;;;;;;5028613;28;20029;-76
2021/04/21 15:15:23;;;;;;;5.40;4.65;;;29.20;40.20;;;;;;5028865;28;20103;-76
2021/04/21 15:17:52;;;;;;;5.97;4.32;;;28.50;39.10;;;;;;5028237;28;20044;-76
2021/04/21 15:20:19;;;;;;;6.50;4.20;;;29.50;39.20;;;;;;5028312;28;20485;-76
2021/04/21 15:22:45;;;;;;;6.25;4.25;;;30.40;38.70;;;;;;5081839;28;20048;-76
2021/04/21 15:25:14;;;;;;;9.05;4.00;;;30.40;37.90;;;;;;5028793;28;20022;-76
2021/04/21 15:27:40;;;;;;;13.73;5.20;;;30.90;36.80;;;;;;5029113;28;20090;-76
2021/04/21 15:30:09;;;;;;;6.38;4.70;;;29.80;37.50;;;;;;5028308;28;20026;-76
2021/04/21 15:32:37;;;;;;;7.47;4.10;;;29.00;38.10;;;;;;5028595;28;20033;-76
2021/04/21 15:35:04;;;;;;;4.72;3.63;;;29.20;38.40;;;;;;5030005;28;20078;-75
2021/04/21 15:37:30;;;;;;;5.10;3.72;;;29.80;38.00;;;;;;5097666;28;20026;-75
2021/04/21 15:40:11;;;;;;;6.25;3.13;;;29.10;37.50;;;;;;5028873;28;20029;-75
2021/04/21 15:42:39;;;;;;;4.10;2.75;;;29.50;38.30;;;;;;5096391;28;20032;-75
2021/04/21 15:45:07;;;;;;;4.93;3.25;;;30.10;37.80;;;;;;5097600;28;20514;-75
2021/04/21 15:47:33;;;;;;;5.65;3.17;;;30.30;37.20;;;;;;5097557;28;20037;-75
2021/04/21 15:49:59;;;;;;;9.02;3.47;;;29.80;38.40;;;;;;5028625;28;20032;-74
2021/04/21 15:52:26;;;;;;;5.18;3.95;;;29.50;37.70;;;;;;5097290;28;20343;-75
2021/04/21 15:54:52;;;;;;;6.15;3.90;;;28.40;37.40;;;;;;5022553;28;20036;-75
2021/04/21 15:57:18;;;;;;;6.38;4.47;;;28.20;38.10;;;;;;5024398;28;20037;-75
2021/04/21 15:59:44;;;;;;;6.45;3.80;;;28.10;38.60;;;;;;5021086;28;20018;-75
2021/04/21 16:02:10;;;;;;;4.35;3.63;;;28.40;37.90;;;;;;5024998;28;20090;-77
2021/04/21 16:04:38;;;;;;;4.43;2.97;;;28.60;38.20;;;;;;5024652;28;20014;-76
2021/04/21 16:07:04;;;;;;;4.35;2.40;;;29.10;37.80;;;;;;5026066;28;20753;-77
2021/04/21 17:16:44;;;;;;;5.28;3.13;;;21.50;53.90;;;;;;5148199;27;20657;-71
2021/04/21 17:19:10;;;;;;;5.25;2.75;;;19.70;51.70;;;;;;5110258;28;20026;-71
2021/04/21 17:21:37;;;;;;;4.20;2.40;;;19.60;51.40;;;;;;5128304;27;20034;-71
2021/04/21 17:24:04;;;;;;;5.15;3.05;;;19.40;51.50;;;;;;5125186;27;20364;-73
2021/04/21 17:26:32;;;;;;;3.38;2.55;;;19.40;51.30;;;;;;5126006;28;20114;-72
2021/04/21 17:28:58;;;;;;;3.42;2.47;;;19.40;51.90;;;;;;5126550;27;20436;-72
2021/04/21 17:31:23;;;;;;;6.20;2.83;;;19.60;51.90;;;;;;5125297;28;20110;-72
2021/04/21 17:33:49;;;;;;;3.15;2.38;;;19.20;52.10;;;;;;5108751;27;20024;-72
2021/04/21 17:36:15;;;;;;;2.88;2.38;;;19.10;52.20;;;;;;5125577;27;20060;-72
2021/04/21 17:38:42;;;;;;;3.63;2.53;;;19.00;52.90;;;;;;5125889;27;20047;-71
2021/04/21 17:41:10;;;;;;;4.70;2.60;;;19.00;53.40;;;;;;5126095;28;20050;-69
2021/04/21 17:43:37;;;;;;;5.88;2.63;;;18.90;53.40;;;;;;5109635;28;20023;-70
2021/04/21 17:46:06;;;;;;;5.75;2.50;;;18.80;53.40;;;;;;5108370;28;20105;-69
2021/04/21 17:48:37;;;;;;;4.43;2.70;;;18.60;53.80;;;;;;5129619;27;20031;-69
2021/04/21 17:51:05;;;;;;;4.47;2.83;;;18.50;54.60;;;;;;5126481;27;20068;-70
2021/04/21 17:53:31;;;;;;;5.38;2.67;;;18.30;54.50;;;;;;5132129;28;20479;-71
2021/04/21 17:55:58;;;;;;;3.90;2.67;;;18.30;55.10;;;;;;5133357;28;20038;-71
2021/04/21 17:58:30;;;;;;;4.55;3.00;;;18.20;55.70;;;;;;5132317;27;20020;-71
2021/04/21 18:00:57;;;;;;;9.23;3.22;;;18.00;56.20;;;;;;5135445;27;20023;-74
2021/04/21 18:03:24;;;;;;;6.25;3.13;;;18.00;55.70;;;;;;5137067;28;20083;-75
2021/04/21 18:05:50;;;;;;;4.75;2.85;;;17.80;56.80;;;;;;5128411;27;20099;-73
2021/04/21 18:08:20;;;;;;;4.38;3.10;;;17.70;57.60;;;;;;5109568;28;20023;-74
2021/04/21 18:10:47;;;;;;;4.50;2.58;;;17.70;57.90;;;;;;5127480;27;20034;-74
2021/04/21 18:13:13;;;;;;;7.53;3.40;;;17.60;58.10;;;;;;5128435;28;20015;-74
2021/04/21 18:15:39;;;;;;;4.45;2.90;;;17.60;58.70;;;;;;5127251;27;20366;-74
2021/04/21 18:18:06;;;;;;;6.72;3.47;;;17.30;58.90;;;;;;5127903;27;20020;-72
2021/04/21 18:20:34;;;;;;;5.53;3.88;;;17.20;59.60;;;;;;5127975;27;20080;-72
2021/04/21 18:23:01;;;;;;;10.27;3.55;;;17.20;63.70;;;;;;5127927;28;20027;-72
2021/04/21 18:25:28;;;;;;;6.65;3.85;;;17.00;64.00;;;;;;5127420;27;20106;-72
2021/04/21 18:27:57;;;;;;;5.85;3.45;;;16.70;63.10;;;;;;5115016;28;20102;-72
2021/04/21 18:30:26;;;;;;;8.57;4.15;;;16.60;63.80;;;;;;5113040;28;20012;-75
2021/04/21 18:32:52;;;;;;;7.85;4.53;;;16.60;65.20;;;;;;5114299;28;20404;-72
2021/04/21 18:35:18;;;;;;;7.53;4.43;;;16.50;65.60;;;;;;5096220;28;20055;-72
2021/04/21 18:37:44;;;;;;;8.35;3.95;;;16.40;65.80;;;;;;5114614;28;20098;-74
2021/04/21 18:40:10;;;;;;;9.68;3.88;;;16.30;65.00;;;;;;5112916;28;20157;-75
2021/04/21 18:42:36;;;;;;;4.80;3.50;;;16.20;64.70;;;;;;5113612;28;20032;-74
2021/04/21 18:45:03;;;;;;;6.15;3.35;;;16.00;68.10;;;;;;5113671;28;20039;-74
2021/04/21 18:47:30;;;;;;;12.80;2.97;;;16.10;69.40;;;;;;5114076;28;20035;-74
2021/04/21 18:49:57;;;;;;;3.95;2.90;;;16.10;72.30;;;;;;5113623;28;20031;-74
2021/04/21 18:52:24;;;;;;;5.55;2.72;;;16.10;75.60;;;;;;5113945;28;20024;-74
2021/04/21 18:54:51;;;;;;;5.03;3.53;;;15.80;77.80;;;;;;5114097;28;20024;-75
2021/04/21 18:57:17;;;;;;;9.27;6.03;;;16.00;80.70;;;;;;5113636;28;20039;-73
2021/04/21 18:59:43;;;;;;;9.35;5.90;;;16.00;77.30;;;;;;5113572;28;20016;-77
2021/04/21 19:02:10;;;;;;;12.23;6.65;;;16.00;77.00;;;;;;5114623;28;20012;-75
2021/04/21 19:04:36;;;;;;;12.15;7.63;;;16.00;78.60;;;;;;5098006;28;20035;-74
2021/04/21 19:07:03;;;;;;;12.30;7.20;;;15.90;80.10;;;;;;5097942;28;20012;-76
2021/04/21 19:09:29;;;;;;;12.07;6.22;;;15.90;80.60;;;;;;5096495;27;20023;-75
2021/04/21 19:11:55;;;;;;;9.95;5.53;;;17.10;85.30;;;;;;5123810;27;20114;-76
2021/04/21 19:14:26;;;;;;;8.63;5.90;;;15.80;86.80;;;;;;5128173;28;20403;-73
2021/04/21 19:16:52;;;;;;;6.97;5.13;;;15.70;89.00;;;;;;5106564;28;20028;-75
2021/04/21 19:19:19;;;;;;;8.98;5.28;;;15.60;90.60;;;;;;5091446;28;20027;-74
2021/04/21 19:21:45;;;;;;;9.55;5.07;;;15.50;91.50;;;;;;5092456;28;20047;-73
2021/04/21 19:24:11;;;;;;;10.07;5.28;;;15.40;92.70;;;;;;5110012;28;20051;-75
2021/04/21 19:26:39;;;;;;;8.32;5.25;;;15.40;92.90;;;;;;5110913;28;20600;-73
2021/04/21 19:29:10;;;;;;;7.15;4.53;;;15.30;94.00;;;;;;5110373;28;20027;-74
2021/04/21 19:31:37;;;;;;;8.40;5.30;;;15.30;94.60;;;;;;5108706;28;20035;-74
2021/04/21 19:34:05;;;;;;;9.80;5.25;;;15.20;95.60;;;;;;5109950;28;20104;-74
2021/04/21 19:36:44;;;;;;;10.10;5.13;;;15.20;96.00;;;;;;5110377;28;20506;-75
2021/04/21 19:39:12;;;;;;;10.10;4.70;;;15.10;95.60;;;;;;5109625;28;20043;-73
2021/04/21 19:41:38;;;;;;;11.60;4.95;;;15.30;97.00;;;;;;5109101;28;20054;-74
2021/04/21 19:44:06;;;;;;;15.07;6.28;;;15.20;97.10;;;;;;5109227;28;20073;-74
2021/04/21 19:46:32;;;;;;;13.43;6.63;;;15.10;97.40;;;;;;5109641;28;20023;-76
2021/04/21 19:49:03;;;;;;;9.27;5.32;;;15.70;98.10;;;;;;5091669;28;20027;-74
2021/04/21 19:51:29;;;;;;;7.88;4.35;;;15.00;98.70;;;;;;5090914;28;20047;-74
2021/04/21 19:54:00;;;;;;;9.63;4.45;;;15.00;98.90;;;;;;5109618;28;20027;-75
2021/04/21 19:56:25;;;;;;;8.10;5.07;;;14.80;99.30;;;;;;5074781;28;20036;-77
2021/04/21 19:58:51;;;;;;;6.90;4.72;;;14.80;99.80;;;;;;5091618;28;20377;-77
2021/04/21 20:01:18;;;;;;;10.15;4.53;;;14.80;99.60;;;;;;5090057;28;20502;-78
2021/04/21 20:03:45;;;;;;;11.00;4.03;;;14.70;99.80;;;;;;5091688;28;20038;-77
2021/04/21 20:06:15;;;;;;;8.05;4.55;;;15.50;99.90;;;;;;5109791;28;20031;-79
2021/04/21 20:08:45;;;;;;;8.60;4.35;;;14.60;99.80;;;;;;5111794;28;20119;-79
2021/04/21 20:11:13;;;;;;;7.50;4.53;;;14.40;99.90;;;;;;5109586;28;20040;-76
2021/04/21 20:13:39;;;;;;;8.48;4.95;;;14.30;99.90;;;;;;5092463;28;20031;-78
2021/04/21 20:16:05;;;;;;;7.43;4.00;;;14.10;99.90;;;;;;5109219;28;20444;-77
2021/04/21 20:18:31;;;;;;;8.43;4.47;;;14.00;99.90;;;;;;5109328;28;20062;-76
2021/04/21 20:20:59;;;;;;;7.15;4.60;;;14.70;99.90;;;;;;5109065;28;20091;-76
2021/04/21 20:23:25;;;;;;;5.10;3.95;;;13.80;99.90;;;;;;5090413;28;20032;-77
2021/04/21 20:25:51;;;;;;;8.40;4.60;;;13.60;99.90;;;;;;5109636;28;20031;-77
2021/04/21 20:28:17;;;;;;;6.85;4.43;;;13.70;99.90;;;;;;5109739;28;20031;-76
2021/04/21 20:30:43;;;;;;;7.45;4.15;;;13.30;99.90;;;;;;5108001;28;20440;-77
2021/04/21 20:33:14;;;;;;;12.55;4.97;;;13.30;99.90;;;;;;5105990;28;20027;-76
2021/04/21 20:35:41;;;;;;;6.05;4.55;;;13.50;99.90;;;;;;5108742;28;20051;-77
2021/04/21 20:38:07;;;;;;;14.07;7.93;;;13.30;99.90;;;;;;5108801;28;20031;-77
2021/04/21 20:40:33;;;;;;;13.50;8.77;;;13.20;99.90;;;;;;5107935;28;20391;-76
2021/04/21 20:42:58;;;;;;;9.13;6.35;;;13.30;99.90;;;;;;5109210;28;20035;-77
2021/04/21 20:45:24;;;;;;;8.00;5.75;;;13.00;99.90;;;;;;5111447;28;20056;-77
2021/04/21 20:47:50;;;;;;;8.30;5.18;;;12.90;99.90;;;;;;5112869;28;20024;-77
2021/04/21 20:50:16;;;;;;;7.13;5.13;;;12.80;99.90;;;;;;5112039;28;20033;-76
2021/04/21 20:52:42;;;;;;;8.98;4.68;;;12.90;99.90;;;;;;5077491;28;20110;-76
2021/04/21 20:55:08;;;;;;;7.88;5.47;;;12.90;99.90;;;;;;5110831;28;20672;-76
2021/04/21 20:57:34;;;;;;;11.35;7.82;;;12.80;99.90;;;;;;5093090;28;20031;-76
2021/04/21 21:00:00;;;;;;;12.80;8.00;;;12.90;99.90;;;;;;5093205;28;20046;-77
2021/04/21 21:02:26;;;;;;;12.68;8.55;;;13.20;99.90;;;;;;5112431;28;20360;-75
2021/04/21 21:04:51;;;;;;;14.77;9.00;;;12.90;99.90;;;;;;5112403;28;20506;-76
2021/04/21 21:07:17;;;;;;;15.18;8.43;;;13.00;99.90;;;;;;5112393;28;20038;-76
2021/04/21 21:09:43;;;;;;;10.57;8.00;;;13.60;99.90;;;;;;5093856;28;20031;-77
2021/04/21 21:12:09;;;;;;;10.55;7.95;;;13.10;99.90;;;;;;5112932;28;20095;-77
2021/04/21 21:14:35;;;;;;;11.65;7.32;;;12.90;99.90;;;;;;5093867;28;20090;-77
2021/04/21 21:17:00;;;;;;;11.63;7.53;;;12.90;99.90;;;;;;5096901;28;20047;-76
2021/04/21 21:19:26;;;;;;;10.80;6.32;;;12.90;99.90;;;;;;5114017;28;20625;-76
2021/04/21 21:21:52;;;;;;;9.88;6.55;;;12.90;99.90;;;;;;5112019;28;20051;-76
2021/04/21 21:24:17;;;;;;;11.82;5.53;;;12.90;99.90;;;;;;5112921;28;20067;-76
2021/04/21 21:26:43;;;;;;;8.93;4.93;;;12.80;99.90;;;;;;5093812;28;20027;-77
2021/04/21 21:29:08;;;;;;;6.90;5.00;;;13.90;99.90;;;;;;5111989;28;20061;-77
2021/04/21 21:31:34;;;;;;;7.88;4.63;;;13.10;99.90;;;;;;5111468;28;20024;-77
2021/04/21 21:34:00;;;;;;;11.70;5.40;;;13.70;99.90;;;;;;5112639;28;20391;-77
2021/04/21 21:36:25;;;;;;;9.02;5.57;;;12.60;99.90;;;;;;5093750;28;20028;-77
2021/04/21 21:38:52;;;;;;;11.27;5.78;;;12.80;99.90;;;;;;5094902;28;20130;-77
2021/04/21 21:41:19;;;;;;;9.30;6.22;;;12.50;99.90;;;;;;5111221;28;20500;-77
2021/04/21 21:43:45;;;;;;;9.60;6.28;;;13.50;99.90;;;;;;5111910;28;20488;-77
2021/04/21 21:46:11;;;;;;;7.82;5.82;;;12.30;99.90;;;;;;5093796;28;20035;-78
2021/04/21 21:48:37;;;;;;;10.43;6.05;;;13.00;99.90;;;;;;5113283;28;20039;-76
2021/04/21 21:51:03;;;;;;;9.38;6.10;;;13.20;99.90;;;;;;5095091;28;20030;-78
2021/04/21 21:53:29;;;;;;;10.10;6.25;;;12.40;99.90;;;;;;5099567;28;20055;-77
2021/04/21 21:55:54;;;;;;;10.35;6.88;;;12.70;99.90;;;;;;5117347;28;20023;-77
2021/04/21 21:58:20;;;;;;;8.02;6.00;;;12.40;99.90;;;;;;5117469;28;20028;-76
2021/04/21 22:00:46;;;;;;;9.13;5.57;;;12.30;99.90;;;;;;5094432;28;20070;-76
2021/04/21 22:03:12;;;;;;;7.93;5.40;;;12.40;99.90;;;;;;5099138;28;20104;-77
2021/04/21 22:05:37;;;;;;;9.68;6.07;;;13.00;99.90;;;;;;5116699;28;20691;-77
2021/04/21 22:08:04;;;;;;;8.02;5.68;;;12.60;99.90;;;;;;5081895;28;20173;-77
2021/04/21 22:10:30;;;;;;;7.35;5.38;;;12.40;99.90;;;;;;5115930;28;20467;-77
2021/04/21 22:12:56;;;;;;;9.13;5.65;;;13.00;99.90;;;;;;5116487;28;20038;-76
2021/04/21 22:15:29;;;;;;;10.48;5.82;;;12.60;99.90;;;;;;5097952;28;20040;-77
2021/04/21 22:17:56;;;;;;;11.75;8.10;;;12.60;99.90;;;;;;5116817;28;20024;-77
2021/04/21 22:20:24;;;;;;;15.32;8.88;;;13.00;99.90;;;;;;5117735;28;20011;-77
2021/04/21 22:22:53;;;;;;;17.52;9.18;;;13.20;99.90;;;;;;5118233;28;20020;-76
2021/04/21 22:25:19;;;;;;;19.02;10.68;;;12.20;99.90;;;;;;5115643;28;20028;-76
2021/04/21 22:27:46;;;;;;;15.82;10.20;;;12.10;99.90;;;;;;5114456;22;20041;-74
2021/04/21 22:30:35;;;;;;;12.45;6.82;;;12.10;99.90;;;;;;5073992;28;20078;-74
2021/04/21 22:33:01;;;;;;;12.30;7.72;;;12.00;99.90;;;;;;5074294;28;20025;-74
2021/04/21 22:35:27;;;;;;;13.50;7.53;;;11.90;99.90;;;;;;5074604;28;20090;-75
2021/04/21 22:37:53;;;;;;;12.50;8.35;;;12.00;99.90;;;;;;5074355;28;20028;-75
2021/04/21 22:40:20;;;;;;;11.32;7.60;;;11.90;99.90;;;;;;5073912;28;20039;-74
2021/04/21 22:42:46;;;;;;;14.43;6.82;;;13.10;99.90;;;;;;5074383;28;20020;-74
2021/04/21 22:45:17;;;;;;;10.82;7.30;;;11.90;99.90;;;;;;5056328;28;20378;-74
2021/04/21 22:47:43;;;;;;;7.25;5.32;;;11.40;99.90;;;;;;5074396;28;20035;-74
2021/04/21 22:50:13;;;;;;;9.73;5.30;;;12.10;99.90;;;;;;5073680;28;20024;-74
2021/04/21 22:52:43;;;;;;;10.90;5.00;;;11.70;99.90;;;;;;5074244;28;20028;-74
2021/04/21 22:55:20;;;;;;;12.10;5.63;;;12.50;99.90;;;;;;5074315;28;20025;-74
2021/04/21 22:57:45;;;;;;;8.77;5.45;;;11.70;99.90;;;;;;5074094;28;20040;-75
2021/04/21 23:00:12;;;;;;;9.30;5.63;;;11.60;99.90;;;;;;5089020;28;20032;-74
2021/04/21 23:02:38;;;;;;;6.95;5.07;;;11.30;99.90;;;;;;5074183;28;20098;-74
2021/04/21 23:05:06;;;;;;;8.25;5.07;;;11.90;99.90;;;;;;5074015;28;20071;-74
2021/04/21 23:07:32;;;;;;;7.68;5.25;;;11.20;99.90;;;;;;5073992;28;20603;-75
2021/04/21 23:09:57;;;;;;;6.57;5.15;;;11.20;99.90;;;;;;5055522;28;20028;-75
2021/04/21 23:12:23;;;;;;;8.07;5.78;;;12.00;99.90;;;;;;5073927;28;20104;-75
